Clinton, Illinois
Current Conditions -  °F | °C
As of 11:15 AM on Thursday 18 Dec 2014 (Local Time) from KAAA Reporting Station
Light Rain Light Rain  
Wind Chill: 28°   Ceiling: 4800
Heat Index: 28°   Visibility: 7mi
Dew Point: 25°   Wind: 0mph
Humidity: 89%   Direction: NA
Pressure: 30.31"   Gusts: NA
Location:  40.15°N, 88.96°W
Report Text: KAAA 181715Z AUTO 00000KT 7SM -RA SCT005 BKN048 OVC070 M02/M04 A3031 RMK AO2 T10251041
Loading
Personal Weather Stations






























Interactive Weather Map New forecast layout! Learn more

10-Day Weather Forecast

Advertisements
Track Severe Weather on mobile